sensor_id;sensor_type;location;lat;lon;timestamp;P1;durP1;ratioP1;P2;durP2;ratioP2
21034;SDS011;10676;50.848;3.272;2022-08-01T00:01:51;8.63;;;5.97;;
21034;SDS011;10676;50.848;3.272;2022-08-01T00:04:17;10.18;;;6.80;;
21034;SDS011;10676;50.848;3.272;2022-08-01T00:06:42;13.77;;;6.72;;
21034;SDS011;10676;50.848;3.272;2022-08-01T00:09:08;12.82;;;7.13;;
21034;SDS011;10676;50.848;3.272;2022-08-01T00:11:34;10.50;;;7.25;;
21034;SDS011;10676;50.848;3.272;2022-08-01T00:13:59;14.25;;;7.38;;
21034;SDS011;10676;50.848;3.272;2022-08-01T00:16:25;13.38;;;7.85;;
21034;SDS011;10676;50.848;3.272;2022-08-01T00:18:51;14.10;;;8.23;;
21034;SDS011;10676;50.848;3.272;2022-08-01T00:21:17;12.05;;;7.72;;
21034;SDS011;10676;50.848;3.272;2022-08-01T00:23:43;10.65;;;7.60;;
21034;SDS011;10676;50.848;3.272;2022-08-01T00:26:10;18.08;;;8.02;;
21034;SDS011;10676;50.848;3.272;2022-08-01T00:28:37;16.20;;;7.35;;
21034;SDS011;10676;50.848;3.272;2022-08-01T00:31:02;17.77;;;7.18;;
21034;SDS011;10676;50.848;3.272;2022-08-01T00:33:28;12.13;;;7.13;;
21034;SDS011;10676;50.848;3.272;2022-08-01T00:35:54;10.98;;;7.15;;
21034;SDS011;10676;50.848;3.272;2022-08-01T00:38:20;14.68;;;8.20;;
21034;SDS011;10676;50.848;3.272;2022-08-01T00:40:46;13.40;;;8.27;;
21034;SDS011;10676;50.848;3.272;2022-08-01T00:43:12;16.77;;;9.18;;
21034;SDS011;10676;50.848;3.272;2022-08-01T00:45:37;13.32;;;9.93;;
21034;SDS011;10676;50.848;3.272;2022-08-01T00:48:03;15.20;;;10.57;;
21034;SDS011;10676;50.848;3.272;2022-08-01T00:50:29;14.00;;;11.38;;
21034;SDS011;10676;50.848;3.272;2022-08-01T00:52:55;15.80;;;11.02;;
21034;SDS011;10676;50.848;3.272;2022-08-01T00:55:22;19.33;;;11.77;;
21034;SDS011;10676;50.848;3.272;2022-08-01T00:57:48;15.88;;;10.43;;
21034;SDS011;10676;50.848;3.272;2022-08-01T01:00:14;25.55;;;19.38;;
21034;SDS011;10676;50.848;3.272;2022-08-01T01:02:40;19.92;;;17.50;;
21034;SDS011;10676;50.848;3.272;2022-08-01T01:05:06;20.52;;;16.08;;
21034;SDS011;10676;50.848;3.272;2022-08-01T01:07:37;23.33;;;17.35;;
21034;SDS011;10676;50.848;3.272;2022-08-01T01:12:57;17.90;;;12.00;;
21034;SDS011;10676;50.848;3.272;2022-08-01T01:16:18;18.75;;;12.82;;
21034;SDS011;10676;50.848;3.272;2022-08-01T01:18:42;19.23;;;12.25;;
21034;SDS011;10676;50.848;3.272;2022-08-01T01:26:50;23.45;;;12.02;;
21034;SDS011;10676;50.848;3.272;2022-08-01T01:29:30;26.42;;;13.60;;
21034;SDS011;10676;50.848;3.272;2022-08-01T01:34:47;28.30;;;14.88;;
21034;SDS011;10676;50.848;3.272;2022-08-01T01:37:18;29.77;;;18.30;;
21034;SDS011;10676;50.848;3.272;2022-08-01T01:39:48;35.63;;;20.75;;
21034;SDS011;10676;50.848;3.272;2022-08-01T01:42:16;42.50;;;28.40;;
21034;SDS011;10676;50.848;3.272;2022-08-01T01:44:43;40.97;;;26.17;;
21034;SDS011;10676;50.848;3.272;2022-08-01T01:47:11;41.33;;;23.40;;
21034;SDS011;10676;50.848;3.272;2022-08-01T01:49:38;38.60;;;26.35;;
21034;SDS011;10676;50.848;3.272;2022-08-01T01:52:06;48.85;;;29.00;;
21034;SDS011;10676;50.848;3.272;2022-08-01T01:54:35;47.10;;;29.10;;
21034;SDS011;10676;50.848;3.272;2022-08-01T01:57:04;48.45;;;28.20;;
21034;SDS011;10676;50.848;3.272;2022-08-01T01:59:32;49.70;;;27.75;;
21034;SDS011;10676;50.848;3.272;2022-08-01T02:02:01;48.63;;;30.00;;
21034;SDS011;10676;50.848;3.272;2022-08-01T02:04:28;51.65;;;29.27;;
21034;SDS011;10676;50.848;3.272;2022-08-01T02:06:55;52.42;;;28.45;;
21034;SDS011;10676;50.848;3.272;2022-08-01T02:09:22;54.75;;;30.40;;
21034;SDS011;10676;50.848;3.272;2022-08-01T02:11:51;56.28;;;30.58;;
21034;SDS011;10676;50.848;3.272;2022-08-01T02:14:19;54.75;;;29.23;;
21034;SDS011;10676;50.848;3.272;2022-08-01T02:16:47;46.30;;;26.30;;
21034;SDS011;10676;50.848;3.272;2022-08-01T02:19:15;49.05;;;26.40;;
21034;SDS011;10676;50.848;3.272;2022-08-01T02:21:44;47.55;;;22.40;;
21034;SDS011;10676;50.848;3.272;2022-08-01T02:26:59;37.83;;;16.65;;
21034;SDS011;10676;50.848;3.272;2022-08-01T02:29:33;30.83;;;15.07;;
21034;SDS011;10676;50.848;3.272;2022-08-01T02:32:13;38.50;;;14.30;;
21034;SDS011;10676;50.848;3.272;2022-08-01T02:34:43;33.70;;;14.38;;
21034;SDS011;10676;50.848;3.272;2022-08-01T02:37:12;35.42;;;15.98;;
21034;SDS011;10676;50.848;3.272;2022-08-01T02:39:39;38.80;;;16.92;;
21034;SDS011;10676;50.848;3.272;2022-08-01T02:42:06;45.65;;;18.10;;
21034;SDS011;10676;50.848;3.272;2022-08-01T02:44:35;35.95;;;17.95;;
21034;SDS011;10676;50.848;3.272;2022-08-01T02:47:04;38.78;;;17.73;;
21034;SDS011;10676;50.848;3.272;2022-08-01T02:49:35;40.28;;;18.15;;
21034;SDS011;10676;50.848;3.272;2022-08-01T02:52:05;33.17;;;17.95;;
21034;SDS011;10676;50.848;3.272;2022-08-01T02:54:35;31.50;;;19.10;;
21034;SDS011;10676;50.848;3.272;2022-08-01T02:57:02;32.90;;;20.58;;
21034;SDS011;10676;50.848;3.272;2022-08-01T02:59:29;36.63;;;18.95;;
21034;SDS011;10676;50.848;3.272;2022-08-01T03:01:58;40.42;;;18.83;;
21034;SDS011;10676;50.848;3.272;2022-08-01T03:04:26;34.10;;;20.42;;
21034;SDS011;10676;50.848;3.272;2022-08-01T03:06:53;40.45;;;19.60;;
21034;SDS011;10676;50.848;3.272;2022-08-01T03:09:23;51.03;;;19.77;;
21034;SDS011;10676;50.848;3.272;2022-08-01T03:11:51;38.28;;;19.25;;
21034;SDS011;10676;50.848;3.272;2022-08-01T03:14:20;49.08;;;19.15;;
21034;SDS011;10676;50.848;3.272;2022-08-01T03:16:46;42.42;;;17.73;;
21034;SDS011;10676;50.848;3.272;2022-08-01T03:19:14;43.33;;;16.65;;
21034;SDS011;10676;50.848;3.272;2022-08-01T03:21:43;47.03;;;17.88;;
21034;SDS011;10676;50.848;3.272;2022-08-01T03:24:10;55.80;;;19.02;;
21034;SDS011;10676;50.848;3.272;2022-08-01T03:26:38;44.83;;;18.33;;
21034;SDS011;10676;50.848;3.272;2022-08-01T03:29:06;50.65;;;17.98;;
21034;SDS011;10676;50.848;3.272;2022-08-01T03:31:35;48.90;;;18.80;;
21034;SDS011;10676;50.848;3.272;2022-08-01T03:34:07;34.28;;;17.73;;
21034;SDS011;10676;50.848;3.272;2022-08-01T03:36:33;37.40;;;17.70;;
21034;SDS011;10676;50.848;3.272;2022-08-01T03:39:03;39.03;;;17.15;;
21034;SDS011;10676;50.848;3.272;2022-08-01T03:41:32;36.88;;;16.70;;
21034;SDS011;10676;50.848;3.272;2022-08-01T03:44:07;42.00;;;18.33;;
21034;SDS011;10676;50.848;3.272;2022-08-01T03:46:47;30.58;;;17.35;;
21034;SDS011;10676;50.848;3.272;2022-08-01T03:49:17;28.83;;;18.55;;
21034;SDS011;10676;50.848;3.272;2022-08-01T03:51:45;30.30;;;18.40;;
21034;SDS011;10676;50.848;3.272;2022-08-01T03:54:16;27.23;;;18.33;;
21034;SDS011;10676;50.848;3.272;2022-08-01T03:56:45;23.35;;;17.70;;
21034;SDS011;10676;50.848;3.272;2022-08-01T03:59:13;27.23;;;17.65;;
21034;SDS011;10676;50.848;3.272;2022-08-01T04:01:44;26.50;;;16.83;;
21034;SDS011;10676;50.848;3.272;2022-08-01T04:04:11;24.33;;;16.42;;
21034;SDS011;10676;50.848;3.272;2022-08-01T04:06:38;24.98;;;16.33;;
21034;SDS011;10676;50.848;3.272;2022-08-01T04:09:04;21.90;;;14.52;;
21034;SDS011;10676;50.848;3.272;2022-08-01T04:11:29;24.02;;;14.88;;
21034;SDS011;10676;50.848;3.272;2022-08-01T04:13:55;18.40;;;13.40;;
21034;SDS011;10676;50.848;3.272;2022-08-01T04:16:22;22.17;;;12.15;;
21034;SDS011;10676;50.848;3.272;2022-08-01T04:18:48;22.85;;;11.25;;
21034;SDS011;10676;50.848;3.272;2022-08-01T04:21:14;14.95;;;10.55;;
21034;SDS011;10676;50.848;3.272;2022-08-01T04:23:43;18.38;;;13.52;;
21034;SDS011;10676;50.848;3.272;2022-08-01T04:26:11;20.42;;;18.48;;
21034;SDS011;10676;50.848;3.272;2022-08-01T04:28:39;19.35;;;17.30;;
21034;SDS011;10676;50.848;3.272;2022-08-01T04:31:08;22.75;;;20.67;;
21034;SDS011;10676;50.848;3.272;2022-08-01T04:33:34;27.80;;;25.50;;
21034;SDS011;10676;50.848;3.272;2022-08-01T04:36:03;24.30;;;21.95;;
21034;SDS011;10676;50.848;3.272;2022-08-01T04:38:32;18.77;;;17.20;;
21034;SDS011;10676;50.848;3.272;2022-08-01T04:41:01;17.02;;;15.32;;
21034;SDS011;10676;50.848;3.272;2022-08-01T04:43:28;15.13;;;13.00;;
21034;SDS011;10676;50.848;3.272;2022-08-01T04:45:53;16.85;;;13.30;;
21034;SDS011;10676;50.848;3.272;2022-08-01T04:48:21;16.10;;;11.30;;
21034;SDS011;10676;50.848;3.272;2022-08-01T04:50:49;11.93;;;9.98;;
21034;SDS011;10676;50.848;3.272;2022-08-01T04:53:15;17.05;;;10.27;;
21034;SDS011;10676;50.848;3.272;2022-08-01T04:55:45;14.48;;;13.13;;
21034;SDS011;10676;50.848;3.272;2022-08-01T04:58:11;16.88;;;15.10;;
21034;SDS011;10676;50.848;3.272;2022-08-01T05:00:39;14.60;;;10.57;;
21034;SDS011;10676;50.848;3.272;2022-08-01T05:03:04;15.50;;;9.23;;
21034;SDS011;10676;50.848;3.272;2022-08-01T05:05:30;10.18;;;8.80;;
21034;SDS011;10676;50.848;3.272;2022-08-01T05:07:56;12.57;;;8.57;;
21034;SDS011;10676;50.848;3.272;2022-08-01T05:10:22;10.73;;;9.38;;
21034;SDS011;10676;50.848;3.272;2022-08-01T05:12:48;9.77;;;8.70;;
21034;SDS011;10676;50.848;3.272;2022-08-01T05:15:14;15.07;;;9.88;;
21034;SDS011;10676;50.848;3.272;2022-08-01T05:17:39;10.07;;;9.18;;
21034;SDS011;10676;50.848;3.272;2022-08-01T05:20:07;10.10;;;9.02;;
21034;SDS011;10676;50.848;3.272;2022-08-01T05:22:33;10.68;;;7.82;;
21034;SDS011;10676;50.848;3.272;2022-08-01T05:24:58;12.02;;;7.95;;
21034;SDS011;10676;50.848;3.272;2022-08-01T05:27:24;9.88;;;7.32;;
21034;SDS011;10676;50.848;3.272;2022-08-01T05:29:50;9.07;;;7.03;;
21034;SDS011;10676;50.848;3.272;2022-08-01T05:32:16;7.47;;;6.63;;
21034;SDS011;10676;50.848;3.272;2022-08-01T05:34:42;8.93;;;7.32;;
21034;SDS011;10676;50.848;3.272;2022-08-01T05:37:07;10.60;;;9.27;;
21034;SDS011;10676;50.848;3.272;2022-08-01T05:39:33;9.55;;;8.38;;
21034;SDS011;10676;50.848;3.272;2022-08-01T05:41:59;9.90;;;8.95;;
21034;SDS011;10676;50.848;3.272;2022-08-01T05:44:24;27.95;;;26.25;;
21034;SDS011;10676;50.848;3.272;2022-08-01T05:46:50;13.88;;;12.85;;
21034;SDS011;10676;50.848;3.272;2022-08-01T05:49:16;18.42;;;16.73;;
21034;SDS011;10676;50.848;3.272;2022-08-01T05:51:42;6.70;;;6.10;;
21034;SDS011;10676;50.848;3.272;2022-08-01T05:54:07;7.15;;;5.82;;
21034;SDS011;10676;50.848;3.272;2022-08-01T05:56:33;10.88;;;6.30;;
21034;SDS011;10676;50.848;3.272;2022-08-01T05:58:59;6.93;;;6.20;;
21034;SDS011;10676;50.848;3.272;2022-08-01T06:01:25;6.40;;;5.78;;
21034;SDS011;10676;50.848;3.272;2022-08-01T06:03:50;5.80;;;5.20;;
21034;SDS011;10676;50.848;3.272;2022-08-01T06:06:19;6.13;;;5.43;;
21034;SDS011;10676;50.848;3.272;2022-08-01T06:08:45;6.07;;;5.30;;
21034;SDS011;10676;50.848;3.272;2022-08-01T06:11:11;6.28;;;5.68;;
21034;SDS011;10676;50.848;3.272;2022-08-01T06:13:36;7.13;;;5.55;;
21034;SDS011;10676;50.848;3.272;2022-08-01T06:16:02;6.60;;;6.00;;
21034;SDS011;10676;50.848;3.272;2022-08-01T06:18:28;7.22;;;5.80;;
21034;SDS011;10676;50.848;3.272;2022-08-01T06:20:53;9.75;;;6.53;;
21034;SDS011;10676;50.848;3.272;2022-08-01T06:23:20;7.72;;;6.32;;
21034;SDS011;10676;50.848;3.272;2022-08-01T06:25:46;5.93;;;5.40;;
21034;SDS011;10676;50.848;3.272;2022-08-01T06:28:12;6.07;;;5.47;;
21034;SDS011;10676;50.848;3.272;2022-08-01T06:30:38;7.53;;;5.97;;
21034;SDS011;10676;50.848;3.272;2022-08-01T06:33:04;8.15;;;6.50;;
21034;SDS011;10676;50.848;3.272;2022-08-01T06:35:30;6.60;;;5.95;;
21034;SDS011;10676;50.848;3.272;2022-08-01T06:37:56;6.60;;;6.00;;
21034;SDS011;10676;50.848;3.272;2022-08-01T06:40:22;6.93;;;6.20;;
21034;SDS011;10676;50.848;3.272;2022-08-01T06:42:49;7.03;;;6.43;;
21034;SDS011;10676;50.848;3.272;2022-08-01T06:45:15;8.35;;;6.75;;
21034;SDS011;10676;50.848;3.272;2022-08-01T06:47:41;7.60;;;6.85;;
21034;SDS011;10676;50.848;3.272;2022-08-01T06:50:08;8.75;;;7.93;;
21034;SDS011;10676;50.848;3.272;2022-08-01T06:52:35;8.50;;;7.75;;
21034;SDS011;10676;50.848;3.272;2022-08-01T06:55:00;8.15;;;6.97;;
21034;SDS011;10676;50.848;3.272;2022-08-01T06:57:27;6.57;;;6.00;;
21034;SDS011;10676;50.848;3.272;2022-08-01T06:59:53;5.28;;;4.88;;
21034;SDS011;10676;50.848;3.272;2022-08-01T07:02:19;5.43;;;4.70;;
21034;SDS011;10676;50.848;3.272;2022-08-01T07:04:44;6.32;;;5.90;;
21034;SDS011;10676;50.848;3.272;2022-08-01T07:07:10;5.65;;;5.22;;
21034;SDS011;10676;50.848;3.272;2022-08-01T07:09:35;7.65;;;7.15;;
21034;SDS011;10676;50.848;3.272;2022-08-01T07:12:02;8.32;;;7.72;;
21034;SDS011;10676;50.848;3.272;2022-08-01T07:14:28;8.13;;;7.63;;
21034;SDS011;10676;50.848;3.272;2022-08-01T07:16:54;7.43;;;6.97;;
21034;SDS011;10676;50.848;3.272;2022-08-01T07:19:19;7.45;;;6.75;;
21034;SDS011;10676;50.848;3.272;2022-08-01T07:21:45;7.55;;;7.00;;
21034;SDS011;10676;50.848;3.272;2022-08-01T07:24:12;8.55;;;8.05;;
21034;SDS011;10676;50.848;3.272;2022-08-01T07:26:39;7.88;;;7.15;;
21034;SDS011;10676;50.848;3.272;2022-08-01T07:29:05;7.75;;;7.22;;
21034;SDS011;10676;50.848;3.272;2022-08-01T07:31:31;8.07;;;7.28;;
21034;SDS011;10676;50.848;3.272;2022-08-01T07:33:57;10.43;;;7.45;;
21034;SDS011;10676;50.848;3.272;2022-08-01T07:36:22;7.13;;;6.60;;
21034;SDS011;10676;50.848;3.272;2022-08-01T07:38:48;7.55;;;7.15;;
21034;SDS011;10676;50.848;3.272;2022-08-01T07:41:14;8.70;;;7.80;;
21034;SDS011;10676;50.848;3.272;2022-08-01T07:43:40;7.38;;;6.97;;
21034;SDS011;10676;50.848;3.272;2022-08-01T07:46:06;8.05;;;6.68;;
21034;SDS011;10676;50.848;3.272;2022-08-01T07:48:31;7.20;;;6.35;;
21034;SDS011;10676;50.848;3.272;2022-08-01T07:50:58;7.68;;;7.18;;
21034;SDS011;10676;50.848;3.272;2022-08-01T07:53:24;7.13;;;6.47;;
21034;SDS011;10676;50.848;3.272;2022-08-01T07:55:50;7.80;;;7.15;;
21034;SDS011;10676;50.848;3.272;2022-08-01T07:58:16;8.23;;;7.53;;
21034;SDS011;10676;50.848;3.272;2022-08-01T08:00:42;8.05;;;7.35;;
21034;SDS011;10676;50.848;3.272;2022-08-01T08:03:08;8.07;;;7.47;;
21034;SDS011;10676;50.848;3.272;2022-08-01T08:05:35;7.45;;;6.85;;
21034;SDS011;10676;50.848;3.272;2022-08-01T08:08:07;7.40;;;6.80;;
21034;SDS011;10676;50.848;3.272;2022-08-01T08:10:35;8.40;;;7.90;;
21034;SDS011;10676;50.848;3.272;2022-08-01T08:13:01;9.70;;;8.90;;
21034;SDS011;10676;50.848;3.272;2022-08-01T08:15:27;9.75;;;8.85;;
21034;SDS011;10676;50.848;3.272;2022-08-01T08:17:53;8.38;;;7.72;;
21034;SDS011;10676;50.848;3.272;2022-08-01T08:20:19;8.57;;;7.88;;
21034;SDS011;10676;50.848;3.272;2022-08-01T08:22:49;8.20;;;7.53;;
21034;SDS011;10676;50.848;3.272;2022-08-01T08:25:15;8.68;;;7.88;;
21034;SDS011;10676;50.848;3.272;2022-08-01T08:27:41;8.07;;;7.47;;
21034;SDS011;10676;50.848;3.272;2022-08-01T08:30:07;7.20;;;6.60;;
21034;SDS011;10676;50.848;3.272;2022-08-01T08:32:34;7.22;;;6.55;;
21034;SDS011;10676;50.848;3.272;2022-08-01T08:35:00;6.22;;;5.72;;
21034;SDS011;10676;50.848;3.272;2022-08-01T08:37:26;6.00;;;5.60;;
21034;SDS011;10676;50.848;3.272;2022-08-01T08:39:52;6.55;;;6.15;;
21034;SDS011;10676;50.848;3.272;2022-08-01T08:42:17;6.93;;;6.28;;
21034;SDS011;10676;50.848;3.272;2022-08-01T08:44:43;6.53;;;6.00;;
21034;SDS011;10676;50.848;3.272;2022-08-01T08:47:13;5.60;;;5.25;;
21034;SDS011;10676;50.848;3.272;2022-08-01T08:49:39;6.65;;;5.32;;
21034;SDS011;10676;50.848;3.272;2022-08-01T08:52:08;5.35;;;5.05;;
21034;SDS011;10676;50.848;3.272;2022-08-01T08:54:34;6.70;;;5.53;;
21034;SDS011;10676;50.848;3.272;2022-08-01T08:57:02;6.15;;;5.75;;
21034;SDS011;10676;50.848;3.272;2022-08-01T08:59:29;7.15;;;6.55;;
21034;SDS011;10676;50.848;3.272;2022-08-01T09:01:55;6.80;;;6.40;;
21034;SDS011;10676;50.848;3.272;2022-08-01T09:04:21;6.95;;;6.53;;
21034;SDS011;10676;50.848;3.272;2022-08-01T09:06:48;7.93;;;7.30;;
21034;SDS011;10676;50.848;3.272;2022-08-01T09:09:13;7.88;;;7.32;;
21034;SDS011;10676;50.848;3.272;2022-08-01T09:11:39;7.80;;;7.30;;
21034;SDS011;10676;50.848;3.272;2022-08-01T09:16:35;7.72;;;7.22;;
21034;SDS011;10676;50.848;3.272;2022-08-01T09:21:38;7.20;;;6.80;;
21034;SDS011;10676;50.848;3.272;2022-08-01T09:24:13;8.55;;;7.68;;
21034;SDS011;10676;50.848;3.272;2022-08-01T09:26:40;8.30;;;7.65;;
21034;SDS011;10676;50.848;3.272;2022-08-01T09:29:07;8.20;;;7.68;;
21034;SDS011;10676;50.848;3.272;2022-08-01T09:31:42;8.30;;;7.80;;
21034;SDS011;10676;50.848;3.272;2022-08-01T09:34:09;8.30;;;7.80;;
21034;SDS011;10676;50.848;3.272;2022-08-01T09:36:54;8.23;;;7.72;;
21034;SDS011;10676;50.848;3.272;2022-08-01T09:39:26;7.65;;;7.15;;
21034;SDS011;10676;50.848;3.272;2022-08-01T09:41:52;7.78;;;7.30;;
21034;SDS011;10676;50.848;3.272;2022-08-01T09:44:28;8.15;;;7.60;;
21034;SDS011;10676;50.848;3.272;2022-08-01T09:47:03;7.20;;;6.85;;
21034;SDS011;10676;50.848;3.272;2022-08-01T09:49:29;6.85;;;6.35;;
21034;SDS011;10676;50.848;3.272;2022-08-01T09:51:58;8.32;;;7.03;;
21034;SDS011;10676;50.848;3.272;2022-08-01T09:54:32;7.55;;;7.03;;
21034;SDS011;10676;50.848;3.272;2022-08-01T09:57:14;8.45;;;7.80;;
21034;SDS011;10676;50.848;3.272;2022-08-01T09:59:42;6.90;;;6.45;;
21034;SDS011;10676;50.848;3.272;2022-08-01T10:02:11;8.02;;;7.63;;
21034;SDS011;10676;50.848;3.272;2022-08-01T10:04:50;7.30;;;6.75;;
21034;SDS011;10676;50.848;3.272;2022-08-01T10:07:17;7.82;;;7.32;;
21034;SDS011;10676;50.848;3.272;2022-08-01T10:09:43;8.20;;;7.60;;
21034;SDS011;10676;50.848;3.272;2022-08-01T10:12:10;8.65;;;7.93;;
21034;SDS011;10676;50.848;3.272;2022-08-01T10:14:38;7.70;;;7.30;;
21034;SDS011;10676;50.848;3.272;2022-08-01T10:17:05;7.68;;;7.07;;
21034;SDS011;10676;50.848;3.272;2022-08-01T10:19:33;7.30;;;6.80;;
21034;SDS011;10676;50.848;3.272;2022-08-01T10:22:00;6.82;;;6.43;;
21034;SDS011;10676;50.848;3.272;2022-08-01T10:24:27;6.30;;;5.78;;
21034;SDS011;10676;50.848;3.272;2022-08-01T10:26:56;5.80;;;5.35;;
21034;SDS011;10676;50.848;3.272;2022-08-01T10:29:27;5.85;;;5.45;;
21034;SDS011;10676;50.848;3.272;2022-08-01T10:31:55;6.65;;;6.10;;
21034;SDS011;10676;50.848;3.272;2022-08-01T10:34:21;5.90;;;5.60;;
21034;SDS011;10676;50.848;3.272;2022-08-01T10:36:48;6.45;;;5.90;;
21034;SDS011;10676;50.848;3.272;2022-08-01T10:39:14;6.15;;;5.68;;
21034;SDS011;10676;50.848;3.272;2022-08-01T10:41:40;6.15;;;5.78;;
21034;SDS011;10676;50.848;3.272;2022-08-01T10:44:06;5.95;;;5.47;;
21034;SDS011;10676;50.848;3.272;2022-08-01T10:46:34;5.70;;;5.30;;
21034;SDS011;10676;50.848;3.272;2022-08-01T10:49:07;5.47;;;4.97;;
21034;SDS011;10676;50.848;3.272;2022-08-01T10:51:38;10.23;;;6.03;;
21034;SDS011;10676;50.848;3.272;2022-08-01T10:54:05;6.07;;;5.68;;
21034;SDS011;10676;50.848;3.272;2022-08-01T10:56:39;5.43;;;4.93;;
21034;SDS011;10676;50.848;3.272;2022-08-01T10:59:09;5.20;;;4.90;;
21034;SDS011;10676;50.848;3.272;2022-08-01T11:01:39;5.28;;;4.88;;
21034;SDS011;10676;50.848;3.272;2022-08-01T11:04:13;5.60;;;5.10;;
21034;SDS011;10676;50.848;3.272;2022-08-01T11:14:22;5.78;;;5.28;;
21034;SDS011;10676;50.848;3.272;2022-08-01T11:16:48;5.03;;;4.63;;
21034;SDS011;10676;50.848;3.272;2022-08-01T11:19:13;5.75;;;5.45;;
21034;SDS011;10676;50.848;3.272;2022-08-01T11:27:21;4.28;;;4.07;;
21034;SDS011;10676;50.848;3.272;2022-08-01T11:30:50;4.90;;;4.50;;
21034;SDS011;10676;50.848;3.272;2022-08-01T11:32:48;6.28;;;4.50;;
21034;SDS011;10676;50.848;3.272;2022-08-01T11:35:15;4.75;;;4.32;;
21034;SDS011;10676;50.848;3.272;2022-08-01T11:37:42;5.20;;;4.90;;
21034;SDS011;10676;50.848;3.272;2022-08-01T11:40:18;5.32;;;4.90;;
21034;SDS011;10676;50.848;3.272;2022-08-01T11:48:18;6.28;;;5.93;;
21034;SDS011;10676;50.848;3.272;2022-08-01T11:50:46;7.70;;;7.20;;
21034;SDS011;10676;50.848;3.272;2022-08-01T11:53:11;7.30;;;6.90;;
21034;SDS011;10676;50.848;3.272;2022-08-01T11:55:45;7.78;;;7.18;;
21034;SDS011;10676;50.848;3.272;2022-08-01T11:58:13;6.53;;;6.22;;
21034;SDS011;10676;50.848;3.272;2022-08-01T12:00:40;6.90;;;6.55;;
21034;SDS011;10676;50.848;3.272;2022-08-01T12:03:07;7.22;;;6.90;;
21034;SDS011;10676;50.848;3.272;2022-08-01T12:05:34;6.88;;;6.45;;
21034;SDS011;10676;50.848;3.272;2022-08-01T12:08:02;9.05;;;8.55;;
21034;SDS011;10676;50.848;3.272;2022-08-01T12:10:30;8.45;;;7.95;;
21034;SDS011;10676;50.848;3.272;2022-08-01T12:13:02;7.43;;;6.93;;
21034;SDS011;10676;50.848;3.272;2022-08-01T12:15:39;8.18;;;7.68;;
21034;SDS011;10676;50.848;3.272;2022-08-01T12:18:05;6.97;;;6.60;;
21034;SDS011;10676;50.848;3.272;2022-08-01T12:20:35;7.15;;;6.75;;
21034;SDS011;10676;50.848;3.272;2022-08-01T12:23:04;8.15;;;7.75;;
21034;SDS011;10676;50.848;3.272;2022-08-01T12:25:35;8.25;;;7.78;;
21034;SDS011;10676;50.848;3.272;2022-08-01T12:28:05;8.70;;;8.30;;
21034;SDS011;10676;50.848;3.272;2022-08-01T12:30:33;8.02;;;7.38;;
21034;SDS011;10676;50.848;3.272;2022-08-01T12:33:01;9.45;;;8.95;;
21034;SDS011;10676;50.848;3.272;2022-08-01T12:35:28;10.20;;;9.30;;
21034;SDS011;10676;50.848;3.272;2022-08-01T12:37:55;8.90;;;8.50;;
21034;SDS011;10676;50.848;3.272;2022-08-01T12:40:24;9.10;;;8.60;;
21034;SDS011;10676;50.848;3.272;2022-08-01T12:42:52;8.30;;;7.90;;
21034;SDS011;10676;50.848;3.272;2022-08-01T12:45:39;8.10;;;7.60;;
21034;SDS011;10676;50.848;3.272;2022-08-01T12:48:08;7.00;;;6.70;;
21034;SDS011;10676;50.848;3.272;2022-08-01T12:50:36;6.20;;;5.90;;
21034;SDS011;10676;50.848;3.272;2022-08-01T12:53:04;7.13;;;6.82;;
21034;SDS011;10676;50.848;3.272;2022-08-01T12:55:30;7.80;;;7.20;;
21034;SDS011;10676;50.848;3.272;2022-08-01T12:58:03;6.70;;;6.40;;
21034;SDS011;10676;50.848;3.272;2022-08-01T13:00:30;6.93;;;6.53;;
21034;SDS011;10676;50.848;3.272;2022-08-01T13:03:03;7.25;;;6.85;;
21034;SDS011;10676;50.848;3.272;2022-08-01T13:05:47;6.53;;;6.18;;
21034;SDS011;10676;50.848;3.272;2022-08-01T13:08:22;6.45;;;6.05;;
21034;SDS011;10676;50.848;3.272;2022-08-01T13:13:40;7.22;;;6.82;;
21034;SDS011;10676;50.848;3.272;2022-08-01T13:16:09;7.28;;;6.90;;
21034;SDS011;10676;50.848;3.272;2022-08-01T13:18:36;7.32;;;6.90;;
21034;SDS011;10676;50.848;3.272;2022-08-01T13:23:39;7.93;;;7.32;;
21034;SDS011;10676;50.848;3.272;2022-08-01T13:26:06;7.40;;;7.10;;
21034;SDS011;10676;50.848;3.272;2022-08-01T13:28:32;6.10;;;5.53;;
21034;SDS011;10676;50.848;3.272;2022-08-01T13:31:06;6.68;;;6.07;;
21034;SDS011;10676;50.848;3.272;2022-08-01T13:33:47;6.10;;;5.80;;
21034;SDS011;10676;50.848;3.272;2022-08-01T13:36:14;6.55;;;6.25;;
21034;SDS011;10676;50.848;3.272;2022-08-01T13:38:40;7.53;;;7.03;;
21034;SDS011;10676;50.848;3.272;2022-08-01T13:41:25;8.57;;;7.97;;
21034;SDS011;10676;50.848;3.272;2022-08-01T13:43:51;8.70;;;8.10;;
21034;SDS011;10676;50.848;3.272;2022-08-01T13:46:17;9.10;;;8.50;;
21034;SDS011;10676;50.848;3.272;2022-08-01T13:48:43;8.15;;;7.65;;
21034;SDS011;10676;50.848;3.272;2022-08-01T13:51:09;7.60;;;7.25;;
21034;SDS011;10676;50.848;3.272;2022-08-01T13:53:35;8.70;;;8.27;;
21034;SDS011;10676;50.848;3.272;2022-08-01T13:56:01;8.80;;;8.43;;
21034;SDS011;10676;50.848;3.272;2022-08-01T13:58:27;8.60;;;8.15;;
21034;SDS011;10676;50.848;3.272;2022-08-01T14:00:53;9.05;;;8.55;;
21034;SDS011;10676;50.848;3.272;2022-08-01T14:03:20;8.27;;;7.82;;
21034;SDS011;10676;50.848;3.272;2022-08-01T14:05:46;8.77;;;8.27;;
21034;SDS011;10676;50.848;3.272;2022-08-01T14:08:12;7.82;;;7.53;;
21034;SDS011;10676;50.848;3.272;2022-08-01T14:10:38;7.82;;;7.53;;
21034;SDS011;10676;50.848;3.272;2022-08-01T14:13:03;7.57;;;7.05;;
21034;SDS011;10676;50.848;3.272;2022-08-01T14:15:30;6.35;;;6.05;;
21034;SDS011;10676;50.848;3.272;2022-08-01T14:17:56;5.80;;;5.50;;
21034;SDS011;10676;50.848;3.272;2022-08-01T14:20:22;6.00;;;5.60;;
21034;SDS011;10676;50.848;3.272;2022-08-01T14:22:48;5.53;;;5.30;;
21034;SDS011;10676;50.848;3.272;2022-08-01T14:25:13;5.63;;;5.38;;
21034;SDS011;10676;50.848;3.272;2022-08-01T14:27:39;5.55;;;5.15;;
21034;SDS011;10676;50.848;3.272;2022-08-01T14:30:06;5.65;;;5.35;;
21034;SDS011;10676;50.848;3.272;2022-08-01T14:32:33;6.45;;;5.95;;
21034;SDS011;10676;50.848;3.272;2022-08-01T14:34:59;5.72;;;5.43;;
21034;SDS011;10676;50.848;3.272;2022-08-01T14:37:26;6.00;;;5.70;;
21034;SDS011;10676;50.848;3.272;2022-08-01T14:39:53;5.97;;;5.47;;
21034;SDS011;10676;50.848;3.272;2022-08-01T14:42:19;6.07;;;5.68;;
21034;SDS011;10676;50.848;3.272;2022-08-01T14:44:44;5.60;;;5.30;;
21034;SDS011;10676;50.848;3.272;2022-08-01T14:47:10;6.82;;;6.45;;
21034;SDS011;10676;50.848;3.272;2022-08-01T14:49:36;6.35;;;5.97;;
21034;SDS011;10676;50.848;3.272;2022-08-01T14:52:01;5.95;;;5.65;;
21034;SDS011;10676;50.848;3.272;2022-08-01T14:54:30;6.03;;;5.72;;
21034;SDS011;10676;50.848;3.272;2022-08-01T14:56:55;5.38;;;5.05;;
21034;SDS011;10676;50.848;3.272;2022-08-01T14:59:21;5.45;;;5.13;;
21034;SDS011;10676;50.848;3.272;2022-08-01T15:01:47;5.55;;;5.18;;
21034;SDS011;10676;50.848;3.272;2022-08-01T15:04:12;5.63;;;5.13;;
21034;SDS011;10676;50.848;3.272;2022-08-01T15:06:38;5.05;;;4.70;;
21034;SDS011;10676;50.848;3.272;2022-08-01T15:09:03;4.95;;;4.68;;
21034;SDS011;10676;50.848;3.272;2022-08-01T15:11:29;4.57;;;4.20;;
21034;SDS011;10676;50.848;3.272;2022-08-01T15:13:55;5.80;;;4.03;;
21034;SDS011;10676;50.848;3.272;2022-08-01T15:16:39;4.70;;;4.30;;
21034;SDS011;10676;50.848;3.272;2022-08-01T15:19:04;4.53;;;4.25;;
21034;SDS011;10676;50.848;3.272;2022-08-01T15:21:30;5.22;;;4.93;;
21034;SDS011;10676;50.848;3.272;2022-08-01T15:23:55;5.18;;;4.75;;
21034;SDS011;10676;50.848;3.272;2022-08-01T15:26:21;5.63;;;5.32;;